createdAt,value
2023-06-04T00:00:06.321Z,6.40
2023-06-04T00:02:34.375Z,6.40
2023-06-04T00:05:02.657Z,6.40
2023-06-04T00:07:31.973Z,6.30
2023-06-04T00:09:59.931Z,6.30
2023-06-04T00:12:27.848Z,6.30
2023-06-04T00:14:55.866Z,6.20
2023-06-04T00:17:23.791Z,6.20
2023-06-04T00:19:51.804Z,6.20
2023-06-04T00:22:19.800Z,6.10
2023-06-04T00:24:49.236Z,6.10
2023-06-04T00:27:17.198Z,6.10
2023-06-04T00:29:45.832Z,6.10
2023-06-04T00:32:14.001Z,6.00
2023-06-04T00:34:42.270Z,6.00
2023-06-04T00:37:10.387Z,6.00
2023-06-04T00:39:38.413Z,6.00
2023-06-04T00:42:08.354Z,5.90
2023-06-04T00:44:37.486Z,5.90
2023-06-04T00:47:05.839Z,5.90
2023-06-04T00:49:33.866Z,5.90
2023-06-04T00:52:02.190Z,5.90
2023-06-04T00:54:30.359Z,5.80
2023-06-04T00:56:58.493Z,5.90
2023-06-04T00:59:28.352Z,5.80
2023-06-04T01:02:00.812Z,5.80
2023-06-04T01:04:33.669Z,5.80
2023-06-04T01:07:05.272Z,5.70
2023-06-04T01:09:33.614Z,5.70
2023-06-04T01:12:03.120Z,5.70
2023-06-04T01:14:34.853Z,5.70
2023-06-04T01:17:09.754Z,5.60
2023-06-04T01:20:00.604Z,5.60
2023-06-04T01:22:38.740Z,5.50
2023-06-04T01:25:12.595Z,5.50
2023-06-04T01:27:41.662Z,5.50
2023-06-04T01:30:13.344Z,5.50
2023-06-04T01:32:41.668Z,5.40
2023-06-04T01:35:10.994Z,5.40
2023-06-04T01:37:38.949Z,5.40
2023-06-04T01:40:09.555Z,5.40
2023-06-04T01:42:37.706Z,5.30
2023-06-04T01:45:06.554Z,5.30
2023-06-04T01:47:36.226Z,5.20
2023-06-04T01:50:04.415Z,5.20
2023-06-04T01:52:32.375Z,5.20
2023-06-04T01:55:00.374Z,5.20
2023-06-04T01:57:28.338Z,5.10
2023-06-04T01:59:56.615Z,5.10
2023-06-04T02:02:24.770Z,5.10
2023-06-04T02:04:54.082Z,5.00
2023-06-04T02:07:22.772Z,5.00
2023-06-04T02:09:51.151Z,5.00
2023-06-04T02:12:19.093Z,5.00
2023-06-04T02:14:48.097Z,4.90
2023-06-04T02:17:17.529Z,4.90
2023-06-04T02:19:51.670Z,4.90
2023-06-04T02:22:21.253Z,4.90
2023-06-04T02:24:49.449Z,4.80
2023-06-04T02:27:17.382Z,4.80
2023-06-04T02:29:45.898Z,4.80
2023-06-04T02:32:13.855Z,4.80
2023-06-04T02:34:41.921Z,4.80
2023-06-04T02:37:09.880Z,4.80
2023-06-04T02:39:39.412Z,4.80
2023-06-04T02:42:08.575Z,4.80
2023-06-04T02:44:36.547Z,4.80
2023-06-04T02:47:04.750Z,4.70
2023-06-04T02:49:32.706Z,4.80
2023-06-04T02:52:00.700Z,4.80
2023-06-04T02:54:28.705Z,4.80
2023-06-04T02:56:58.123Z,4.80
2023-06-04T02:59:26.380Z,4.80
2023-06-04T03:01:55.108Z,4.70
2023-06-04T03:04:23.316Z,4.70
2023-06-04T03:06:58.380Z,4.70
2023-06-04T03:09:26.547Z,4.70
2023-06-04T03:11:55.311Z,4.60
2023-06-04T03:14:24.788Z,4.60
2023-06-04T03:16:53.707Z,4.60
2023-06-04T03:19:21.726Z,4.60
2023-06-04T03:21:51.683Z,4.60
2023-06-04T03:24:19.797Z,4.50
2023-06-04T03:26:47.741Z,4.60
2023-06-04T03:29:15.793Z,4.50
2023-06-04T03:31:46.911Z,4.60
2023-06-04T03:34:14.997Z,4.60
2023-06-04T03:36:43.272Z,4.60
2023-06-04T03:39:12.025Z,4.60
2023-06-04T03:41:40.047Z,4.60
2023-06-04T03:44:08.066Z,4.60
2023-06-04T03:46:36.315Z,4.70
2023-06-04T03:49:06.093Z,4.70
2023-06-04T03:51:34.135Z,4.80
2023-06-04T03:54:03.213Z,4.90
2023-06-04T03:56:31.500Z,4.80
2023-06-04T03:58:59.491Z,4.90
2023-06-04T04:01:27.682Z,4.90
2023-06-04T04:03:55.679Z,5.00
2023-06-04T04:06:25.129Z,5.10
2023-06-04T04:08:54.295Z,5.20
2023-06-04T04:11:22.962Z,5.20
2023-06-04T04:13:53.415Z,5.40
2023-06-04T04:16:21.702Z,5.50
2023-06-04T04:18:49.736Z,5.70
2023-06-04T04:21:18.011Z,5.80
2023-06-04T04:23:48.124Z,6.00
2023-06-04T04:26:18.169Z,6.20
2023-06-04T04:28:46.293Z,6.40
2023-06-04T04:31:15.833Z,6.60
2023-06-04T04:33:44.514Z,6.70
2023-06-04T04:36:13.997Z,6.90
2023-06-04T04:38:42.309Z,7.10
2023-06-04T04:41:12.803Z,7.30
2023-06-04T04:43:41.391Z,7.40
2023-06-04T04:46:11.017Z,7.60
2023-06-04T04:48:39.818Z,7.80
2023-06-04T04:51:08.010Z,8.00
2023-06-04T04:53:37.008Z,8.20
2023-06-04T04:56:07.254Z,8.40
2023-06-04T04:58:37.325Z,8.60
2023-06-04T05:01:05.458Z,8.80
2023-06-04T05:03:33.671Z,9.00
2023-06-04T05:06:01.621Z,9.30
2023-06-04T05:08:29.600Z,9.50
2023-06-04T05:10:57.581Z,9.70
2023-06-04T05:13:25.656Z,10.00
2023-06-04T05:15:55.161Z,10.30
2023-06-04T05:18:23.179Z,10.60
2023-06-04T05:20:51.073Z,10.90
2023-06-04T05:23:19.091Z,11.10
2023-06-04T05:25:47.142Z,11.40
2023-06-04T05:28:15.185Z,11.60
2023-06-04T05:30:44.209Z,11.80
2023-06-04T05:33:19.256Z,12.10
2023-06-04T05:35:49.317Z,12.30
2023-06-04T05:38:19.635Z,12.70
2023-06-04T05:40:48.235Z,13.00
2023-06-04T05:43:16.320Z,13.20
2023-06-04T05:45:44.312Z,13.50
2023-06-04T05:48:14.421Z,13.70
2023-06-04T05:50:42.680Z,13.90
2023-06-04T05:53:11.014Z,14.20
2023-06-04T05:55:40.716Z,14.40
2023-06-04T05:58:09.008Z,14.60
2023-06-04T06:00:36.935Z,14.80
2023-06-04T06:03:07.813Z,15.00
2023-06-04T06:05:37.289Z,15.20
2023-06-04T06:08:06.101Z,15.50
2023-06-04T06:10:34.083Z,15.80
2023-06-04T06:13:02.647Z,16.10
2023-06-04T06:15:31.454Z,16.40
2023-06-04T06:17:59.754Z,16.60
2023-06-04T06:20:27.854Z,16.70
2023-06-04T06:22:57.191Z,16.90
2023-06-04T06:25:25.223Z,16.90
2023-06-04T06:27:53.277Z,16.90
2023-06-04T06:30:21.328Z,16.90
2023-06-04T06:32:51.548Z,16.90
2023-06-04T06:35:20.976Z,17.10
2023-06-04T06:37:48.948Z,17.40
2023-06-04T06:40:18.466Z,17.60
2023-06-04T06:42:51.119Z,17.70
2023-06-04T06:45:19.659Z,17.90
2023-06-04T06:47:47.903Z,17.70
2023-06-04T06:50:16.312Z,17.50
2023-06-04T06:52:44.769Z,17.40
2023-06-04T06:55:12.740Z,17.40
2023-06-04T06:57:42.203Z,17.60
2023-06-04T07:00:12.241Z,18.00
2023-06-04T07:02:40.380Z,18.30
2023-06-04T07:05:08.953Z,18.50
2023-06-04T07:07:37.473Z,18.60
2023-06-04T07:10:06.323Z,18.80
2023-06-04T07:12:34.238Z,18.70
2023-06-04T07:15:04.376Z,19.00
2023-06-04T07:17:32.359Z,19.20
2023-06-04T07:20:01.329Z,19.40
2023-06-04T07:22:29.395Z,19.50
2023-06-04T07:24:57.421Z,19.60
2023-06-04T07:27:25.712Z,19.60
2023-06-04T07:29:54.056Z,19.60
2023-06-04T07:32:23.444Z,19.60
2023-06-04T07:34:51.532Z,19.50
2023-06-04T07:37:19.609Z,19.80
2023-06-04T07:39:47.855Z,19.90
2023-06-04T07:42:16.066Z,20.00
2023-06-04T07:44:44.210Z,19.90
2023-06-04T07:47:12.188Z,20.00
2023-06-04T07:49:54.047Z,19.90
2023-06-04T07:52:29.478Z,19.80
2023-06-04T07:54:57.890Z,19.90
2023-06-04T07:57:26.039Z,19.90
2023-06-04T07:59:54.085Z,20.10
2023-06-04T08:02:22.232Z,20.30
2023-06-04T08:04:52.147Z,20.50
2023-06-04T08:07:20.264Z,20.50
2023-06-04T08:09:48.958Z,20.40
2023-06-04T08:12:17.804Z,20.50
2023-06-04T08:14:46.245Z,20.60
2023-06-04T08:17:14.708Z,20.70
2023-06-04T08:19:42.616Z,20.90
2023-06-04T08:22:12.639Z,20.80
2023-06-04T08:24:41.740Z,20.80
2023-06-04T08:27:09.982Z,21.00
2023-06-04T08:29:38.230Z,21.20
2023-06-04T08:32:08.794Z,21.20
2023-06-04T08:34:37.105Z,21.10
2023-06-04T08:37:05.244Z,20.90
2023-06-04T08:39:34.774Z,20.90
2023-06-04T08:42:06.144Z,20.80
2023-06-04T08:44:34.240Z,21.00
2023-06-04T08:47:05.629Z,21.00
2023-06-04T08:49:37.377Z,20.80
2023-06-04T08:52:06.951Z,20.80
2023-06-04T08:54:36.411Z,20.90
2023-06-04T08:57:05.622Z,21.10
2023-06-04T08:59:33.618Z,21.30
2023-06-04T09:02:01.730Z,21.30
2023-06-04T09:04:30.985Z,21.40
2023-06-04T09:07:04.338Z,21.50
2023-06-04T09:09:34.030Z,21.70
2023-06-04T09:12:06.143Z,21.70
2023-06-04T09:14:34.223Z,21.80
2023-06-04T09:17:02.424Z,22.00
2023-06-04T09:19:30.612Z,22.00
2023-06-04T09:22:00.349Z,21.80
2023-06-04T09:24:41.583Z,21.80
2023-06-04T09:27:15.004Z,21.70
2023-06-04T09:29:51.393Z,21.40
2023-06-04T09:32:23.625Z,21.30
2023-06-04T09:34:52.109Z,21.20
2023-06-04T09:37:20.159Z,21.20
2023-06-04T09:39:56.126Z,21.10
2023-06-04T09:42:28.412Z,21.00
2023-06-04T09:44:56.441Z,21.00
2023-06-04T09:47:24.447Z,21.00
2023-06-04T09:49:53.700Z,21.20
2023-06-04T09:52:23.021Z,21.10
2023-06-04T09:54:51.091Z,21.20
2023-06-04T09:57:20.361Z,21.20
2023-06-04T09:59:55.912Z,21.20
2023-06-04T10:02:24.568Z,21.10
2023-06-04T10:04:57.714Z,21.00
2023-06-04T10:07:26.815Z,21.00
2023-06-04T10:09:55.335Z,21.00
2023-06-04T10:12:28.199Z,21.00
2023-06-04T10:15:01.533Z,21.20
2023-06-04T10:17:31.238Z,21.20
2023-06-04T10:20:01.990Z,21.20
2023-06-04T10:22:31.294Z,21.30
2023-06-04T10:25:00.269Z,21.20
2023-06-04T10:27:28.823Z,21.10
2023-06-04T10:29:59.078Z,21.10
2023-06-04T10:32:29.624Z,21.10
2023-06-04T10:34:58.408Z,21.00
2023-06-04T10:37:27.781Z,20.80
2023-06-04T10:39:56.634Z,20.70
2023-06-04T10:42:25.364Z,20.60
2023-06-04T10:44:57.532Z,20.60
2023-06-04T10:47:31.646Z,20.50
2023-06-04T10:50:10.168Z,20.50
2023-06-04T10:52:38.339Z,20.40
2023-06-04T10:55:07.865Z,20.30
2023-06-04T10:57:37.693Z,20.40
2023-06-04T11:00:11.165Z,20.50
2023-06-04T11:02:52.717Z,20.50
2023-06-04T11:05:21.681Z,20.50
2023-06-04T11:07:51.168Z,20.40
2023-06-04T11:10:19.694Z,20.40
2023-06-04T11:12:51.540Z,20.40
2023-06-04T11:15:19.747Z,20.40
2023-06-04T11:17:56.665Z,20.30
2023-06-04T11:20:25.278Z,20.50
2023-06-04T11:22:54.761Z,20.60
2023-06-04T11:25:23.554Z,20.80
2023-06-04T11:27:52.280Z,20.80
2023-06-04T11:30:20.543Z,20.70
2023-06-04T11:32:48.977Z,20.60
2023-06-04T11:35:18.481Z,20.60
2023-06-04T11:37:55.889Z,20.70
2023-06-04T11:40:24.144Z,20.70
2023-06-04T11:42:52.498Z,20.90
2023-06-04T11:45:21.410Z,21.10
2023-06-04T11:47:50.291Z,21.20
2023-06-04T11:50:20.042Z,21.10
2023-06-04T11:52:49.193Z,21.10
2023-06-04T11:55:21.932Z,21.20
2023-06-04T11:57:50.410Z,21.10
2023-06-04T12:00:20.439Z,21.20
2023-06-04T12:02:54.159Z,21.30
2023-06-04T12:05:30.598Z,21.50
2023-06-04T12:08:07.894Z,21.50
2023-06-04T12:10:40.536Z,21.60
2023-06-04T12:13:09.284Z,21.70
2023-06-04T12:15:37.480Z,21.80
2023-06-04T12:18:06.596Z,22.00
2023-06-04T12:20:38.839Z,22.00
2023-06-04T12:23:08.585Z,21.90
2023-06-04T12:25:38.783Z,21.90
2023-06-04T12:28:07.292Z,21.90
2023-06-04T12:30:38.813Z,22.00
2023-06-04T12:33:07.072Z,22.10
2023-06-04T12:35:37.554Z,22.20
2023-06-04T12:38:06.613Z,22.30
2023-06-04T12:40:34.775Z,22.50
2023-06-04T12:43:03.091Z,22.70
2023-06-04T12:45:31.113Z,22.80
2023-06-04T12:47:59.246Z,23.10
2023-06-04T12:50:27.218Z,23.20
2023-06-04T12:52:56.613Z,23.20
2023-06-04T12:55:26.534Z,23.40
2023-06-04T12:57:56.870Z,23.50
2023-06-04T13:00:24.910Z,23.70
2023-06-04T13:02:53.138Z,23.80
2023-06-04T13:05:21.230Z,23.80
2023-06-04T13:07:49.241Z,23.90
2023-06-04T13:10:18.541Z,24.10
2023-06-04T13:12:47.044Z,24.20
2023-06-04T13:15:15.131Z,24.40
2023-06-04T13:17:43.121Z,24.40
2023-06-04T13:20:12.423Z,24.60
2023-06-04T13:22:41.463Z,24.40
2023-06-04T13:25:10.428Z,24.70
2023-06-04T13:27:39.789Z,24.90
2023-06-04T13:30:09.279Z,25.10
2023-06-04T13:32:37.415Z,25.20
2023-06-04T13:35:06.138Z,24.90
2023-06-04T13:37:34.334Z,24.70
2023-06-04T13:40:02.411Z,24.80
2023-06-04T13:42:30.457Z,25.00
2023-06-04T13:44:59.999Z,24.90
2023-06-04T13:47:28.046Z,25.00
2023-06-04T13:49:56.151Z,25.20
2023-06-04T13:52:24.227Z,25.20
2023-06-04T13:54:52.430Z,25.40
2023-06-04T13:57:20.406Z,25.30
2023-06-04T13:59:48.383Z,25.30
2023-06-04T14:02:17.883Z,25.40
2023-06-04T14:04:45.840Z,25.40
2023-06-04T14:07:13.835Z,25.40
2023-06-04T14:09:41.992Z,25.50
2023-06-04T14:12:10.537Z,25.50
2023-06-04T14:14:38.643Z,25.60
2023-06-04T14:17:07.250Z,25.60
2023-06-04T14:19:36.937Z,25.70
2023-06-04T14:22:05.521Z,25.70
2023-06-04T14:24:33.525Z,25.60
2023-06-04T14:27:01.983Z,25.50
2023-06-04T14:29:29.923Z,25.50
2023-06-04T14:31:57.899Z,25.40
2023-06-04T14:34:26.499Z,25.40
2023-06-04T14:36:55.813Z,25.30
2023-06-04T14:39:23.745Z,25.30
2023-06-04T14:41:53.090Z,25.00
2023-06-04T14:44:21.277Z,25.10
2023-06-04T14:46:50.623Z,25.10
2023-06-04T14:49:18.855Z,24.80
2023-06-04T14:51:47.639Z,24.80
2023-06-04T14:54:17.173Z,24.90
2023-06-04T14:56:45.778Z,24.80
2023-06-04T14:59:13.739Z,24.80
2023-06-04T15:01:42.654Z,24.90
2023-06-04T15:04:10.799Z,25.00
2023-06-04T15:06:38.795Z,25.00
2023-06-04T15:09:06.730Z,25.00
2023-06-04T15:11:37.223Z,25.00
2023-06-04T15:14:05.941Z,24.80
2023-06-04T15:16:34.056Z,24.70
2023-06-04T15:19:02.352Z,24.50
2023-06-04T15:21:30.488Z,24.40
2023-06-04T15:23:58.484Z,24.20
2023-06-04T15:26:28.050Z,24.10
2023-06-04T15:28:58.023Z,23.90
2023-06-04T15:31:26.153Z,23.70
2023-06-04T15:33:54.236Z,23.70
2023-06-04T15:36:22.221Z,23.50
2023-06-04T15:38:51.613Z,23.60
2023-06-04T15:41:22.860Z,23.70
2023-06-04T15:43:53.195Z,23.50
2023-06-04T15:46:25.759Z,23.50
2023-06-04T15:48:53.956Z,23.60
2023-06-04T15:51:21.888Z,23.60
2023-06-04T15:53:50.820Z,23.70
2023-06-04T15:56:20.388Z,23.70
2023-06-04T15:58:48.313Z,23.70
2023-06-04T16:01:16.439Z,23.60
2023-06-04T16:03:46.334Z,23.60
2023-06-04T16:06:14.482Z,23.50
2023-06-04T16:08:42.917Z,23.40
2023-06-04T16:11:11.070Z,23.50
2023-06-04T16:13:39.056Z,23.40
2023-06-04T16:16:07.390Z,23.30
2023-06-04T16:18:35.532Z,23.40
2023-06-04T16:21:04.895Z,23.50
2023-06-04T16:23:32.949Z,23.40
2023-06-04T16:26:02.842Z,23.40
2023-06-04T16:28:31.476Z,23.30
2023-06-04T16:30:59.483Z,23.30
2023-06-04T16:33:27.654Z,23.30
2023-06-04T16:35:55.701Z,23.10
2023-06-04T16:38:24.968Z,23.00
2023-06-04T16:40:53.114Z,22.90
2023-06-04T16:43:21.831Z,22.90
2023-06-04T16:45:50.254Z,22.90
2023-06-04T16:48:18.329Z,23.00
2023-06-04T16:50:46.223Z,23.10
2023-06-04T16:53:14.264Z,23.00
2023-06-04T16:55:43.551Z,22.90
2023-06-04T16:58:12.022Z,22.90
2023-06-04T17:00:40.100Z,22.70
2023-06-04T17:03:08.676Z,22.50
2023-06-04T17:05:36.733Z,22.30
2023-06-04T17:08:05.988Z,22.20
2023-06-04T17:10:33.967Z,22.10
2023-06-04T17:13:04.199Z,22.00
2023-06-04T17:15:32.533Z,21.90
2023-06-04T17:18:02.401Z,21.80
2023-06-04T17:20:31.356Z,21.70
2023-06-04T17:23:01.282Z,21.70
2023-06-04T17:25:29.389Z,21.60
2023-06-04T17:27:57.728Z,21.50
2023-06-04T17:30:27.150Z,21.50
2023-06-04T17:32:56.018Z,21.40
2023-06-04T17:35:24.082Z,21.30
2023-06-04T17:37:52.263Z,21.30
2023-06-04T17:40:20.275Z,21.30
2023-06-04T17:42:48.386Z,21.30
2023-06-04T17:45:16.550Z,21.20
2023-06-04T17:47:46.240Z,21.10
2023-06-04T17:50:14.348Z,21.00
2023-06-04T17:52:42.378Z,20.90
2023-06-04T17:55:10.965Z,20.80
2023-06-04T17:57:38.906Z,20.70
2023-06-04T18:00:08.510Z,20.60
2023-06-04T18:02:36.619Z,20.50
2023-06-04T18:05:06.652Z,20.40
2023-06-04T18:07:34.642Z,20.30
2023-06-04T18:10:02.679Z,20.20
2023-06-04T18:12:31.919Z,20.20
2023-06-04T18:15:01.198Z,20.10
2023-06-04T18:17:29.249Z,20.00
2023-06-04T18:19:57.196Z,19.90
2023-06-04T18:22:26.592Z,19.90
2023-06-04T18:24:54.871Z,19.80
2023-06-04T18:27:25.678Z,19.60
2023-06-04T18:29:53.711Z,19.40
2023-06-04T18:32:21.873Z,19.20
2023-06-04T18:34:49.824Z,19.00
2023-06-04T18:37:17.848Z,18.80
2023-06-04T18:39:47.375Z,18.60
2023-06-04T18:42:29.503Z,18.40
2023-06-04T18:45:00.630Z,18.20
2023-06-04T18:47:28.925Z,18.00
2023-06-04T18:49:57.987Z,17.80
2023-06-04T18:52:26.244Z,17.60
2023-06-04T18:54:55.622Z,17.40
2023-06-04T18:57:23.598Z,17.20
2023-06-04T18:59:51.671Z,17.00
2023-06-04T19:02:19.779Z,16.80
2023-06-04T19:04:47.762Z,16.70
2023-06-04T19:07:15.781Z,16.50
2023-06-04T19:09:43.812Z,16.30
2023-06-04T19:12:13.229Z,16.20
2023-06-04T19:14:41.304Z,16.00
2023-06-04T19:17:09.316Z,15.80
2023-06-04T19:19:37.475Z,15.70
2023-06-04T19:22:05.861Z,15.50
2023-06-04T19:24:33.880Z,15.40
2023-06-04T19:27:01.944Z,15.20
2023-06-04T19:29:31.275Z,15.00
2023-06-04T19:31:59.435Z,14.80
2023-06-04T19:34:27.583Z,14.70
2023-06-04T19:36:55.995Z,14.60
2023-06-04T19:39:23.951Z,14.50
2023-06-04T19:41:51.932Z,14.40
2023-06-04T19:44:21.122Z,14.20
2023-06-04T19:46:50.812Z,14.10
2023-06-04T19:49:20.615Z,14.10
2023-06-04T19:51:49.256Z,14.10
2023-06-04T19:54:17.385Z,14.00
2023-06-04T19:56:45.498Z,14.00
2023-06-04T19:59:13.532Z,13.90
2023-06-04T20:01:41.511Z,13.90
2023-06-04T20:04:10.941Z,13.70
2023-06-04T20:06:39.268Z,13.60
2023-06-04T20:09:08.418Z,13.50
2023-06-04T20:11:36.553Z,13.40
2023-06-04T20:14:06.710Z,13.30
2023-06-04T20:16:34.853Z,13.10
2023-06-04T20:19:02.990Z,13.00
2023-06-04T20:21:33.432Z,12.90
2023-06-04T20:24:02.031Z,12.80
2023-06-04T20:26:30.133Z,12.60
2023-06-04T20:28:58.471Z,12.70
2023-06-04T20:31:28.428Z,12.60
2023-06-04T20:33:57.333Z,12.40
2023-06-04T20:36:26.094Z,12.30
2023-06-04T20:38:57.185Z,12.20
2023-06-04T20:41:25.469Z,12.10
2023-06-04T20:43:54.497Z,12.10
2023-06-04T20:46:30.435Z,11.90
2023-06-04T20:48:58.400Z,11.90
2023-06-04T20:51:26.361Z,11.80
2023-06-04T20:53:55.786Z,11.70
2023-06-04T20:56:24.601Z,11.70
2023-06-04T20:58:52.571Z,11.60
2023-06-04T21:01:20.736Z,11.70
2023-06-04T21:03:48.945Z,11.60
2023-06-04T21:06:17.065Z,11.50
2023-06-04T21:08:44.961Z,11.40
2023-06-04T21:11:14.331Z,11.30
2023-06-04T21:13:42.540Z,11.20
2023-06-04T21:16:10.576Z,11.10
2023-06-04T21:18:38.932Z,11.10
2023-06-04T21:21:07.262Z,10.90
2023-06-04T21:23:35.558Z,10.90
2023-06-04T21:26:03.585Z,10.90
2023-06-04T21:28:32.908Z,10.80
2023-06-04T21:31:00.947Z,10.80
2023-06-04T21:33:29.087Z,10.70
2023-06-04T21:35:57.077Z,10.60
2023-06-04T21:38:25.087Z,10.50
2023-06-04T21:40:52.997Z,10.50
2023-06-04T21:43:21.798Z,10.40
2023-06-04T21:45:51.596Z,10.30
2023-06-04T21:48:21.561Z,10.30
2023-06-04T21:50:49.712Z,10.20
2023-06-04T21:53:17.874Z,10.20
2023-06-04T21:55:45.833Z,10.20
2023-06-04T21:58:13.794Z,10.10
2023-06-04T22:00:41.966Z,10.10
2023-06-04T22:03:11.498Z,10.00
2023-06-04T22:05:39.557Z,10.00
2023-06-04T22:08:07.625Z,10.00
2023-06-04T22:10:35.555Z,9.90
2023-06-04T22:13:03.569Z,9.90
2023-06-04T22:15:31.602Z,9.90
2023-06-04T22:18:02.536Z,9.80
2023-06-04T22:20:32.005Z,9.80
2023-06-04T22:22:59.946Z,9.80
2023-06-04T22:25:27.782Z,9.70
2023-06-04T22:27:55.860Z,9.70
2023-06-04T22:30:23.808Z,9.70
2023-06-04T22:32:52.021Z,9.60
2023-06-04T22:35:20.331Z,9.60
2023-06-04T22:37:49.722Z,9.60
2023-06-04T22:40:17.914Z,9.60
2023-06-04T22:42:45.894Z,9.50
2023-06-04T22:45:14.086Z,9.50
2023-06-04T22:47:42.187Z,9.50
2023-06-04T22:50:11.272Z,9.40
2023-06-04T22:52:41.301Z,9.40
2023-06-04T22:55:11.793Z,9.40
2023-06-04T22:57:40.325Z,9.40
2023-06-04T23:00:09.886Z,9.30
2023-06-04T23:02:37.956Z,9.30
2023-06-04T23:05:07.558Z,9.30
2023-06-04T23:07:35.483Z,9.20
2023-06-04T23:10:05.895Z,9.20
2023-06-04T23:12:35.279Z,9.20
2023-06-04T23:15:03.440Z,9.10
2023-06-04T23:17:31.650Z,9.10
2023-06-04T23:19:59.717Z,9.10
2023-06-04T23:22:27.867Z,9.00
2023-06-04T23:24:56.161Z,9.00
2023-06-04T23:27:24.190Z,9.00
2023-06-04T23:29:53.544Z,8.90
2023-06-04T23:32:21.539Z,8.90
2023-06-04T23:34:49.781Z,8.90
2023-06-04T23:37:17.740Z,8.90
2023-06-04T23:39:45.771Z,8.80
2023-06-04T23:42:13.735Z,8.80
2023-06-04T23:44:41.765Z,8.80
2023-06-04T23:47:11.128Z,8.80
2023-06-04T23:49:39.188Z,8.70
2023-06-04T23:52:07.580Z,8.70
2023-06-04T23:54:35.428Z,8.70
2023-06-04T23:57:03.424Z,8.60
2023-06-04T23:59:31.259Z,8.60
